sensor_id;sensor_type;location;lat;lon;timestamp;pressure;altitude;pressure_sealevel;temperature;humidity
82728;BME280;72459;50.110;8.750;2023-09-08T00:00:31;100780.56;;;19.05;51.26
82728;BME280;72459;50.110;8.750;2023-09-08T00:02:57;100776.09;;;19.02;53.06
82728;BME280;72459;50.110;8.750;2023-09-08T00:05:22;100775.22;;;19.03;50.69
82728;BME280;72459;50.110;8.750;2023-09-08T00:07:47;100775.19;;;18.98;53.06
82728;BME280;72459;50.110;8.750;2023-09-08T00:10:12;100776.03;;;18.94;50.41
82728;BME280;72459;50.110;8.750;2023-09-08T00:12:38;100781.31;;;18.90;49.72
82728;BME280;72459;50.110;8.750;2023-09-08T00:15:05;100773.31;;;18.90;50.07
82728;BME280;72459;50.110;8.750;2023-09-08T00:17:31;100775.97;;;18.87;49.38
82728;BME280;72459;50.110;8.750;2023-09-08T00:19:57;100776.78;;;18.81;50.52
82728;BME280;72459;50.110;8.750;2023-09-08T00:22:23;100775.88;;;18.81;50.31
82728;BME280;72459;50.110;8.750;2023-09-08T00:24:48;100776.72;;;18.77;51.16
82728;BME280;72459;50.110;8.750;2023-09-08T00:27:13;100763.38;;;18.74;51.29
82728;BME280;72459;50.110;8.750;2023-09-08T00:29:39;100773.13;;;18.73;51.05
82728;BME280;72459;50.110;8.750;2023-09-08T00:32:05;100773.09;;;18.68;52.03
82728;BME280;72459;50.110;8.750;2023-09-08T00:34:30;100769.50;;;18.63;54.42
82728;BME280;72459;50.110;8.750;2023-09-08T00:36:56;100778.38;;;18.65;51.55
82728;BME280;72459;50.110;8.750;2023-09-08T00:39:21;100770.38;;;18.64;52.44
82728;BME280;72459;50.110;8.750;2023-09-08T00:41:46;100770.41;;;18.67;51.97
82728;BME280;72459;50.110;8.750;2023-09-08T00:44:12;100762.34;;;18.61;52.28
82728;BME280;72459;50.110;8.750;2023-09-08T00:46:38;100759.66;;;18.59;53.13
82728;BME280;72459;50.110;8.750;2023-09-08T00:49:04;100759.59;;;18.53;55.57
82728;BME280;72459;50.110;8.750;2023-09-08T00:51:30;100760.47;;;18.54;57.58
82728;BME280;72459;50.110;8.750;2023-09-08T00:53:56;100758.63;;;18.47;53.97
82728;BME280;72459;50.110;8.750;2023-09-08T00:56:22;100755.03;;;18.42;52.21
82728;BME280;72459;50.110;8.750;2023-09-08T00:58:48;100754.16;;;18.41;51.94
82728;BME280;72459;50.110;8.750;2023-09-08T01:01:13;100759.44;;;18.38;54.96
82728;BME280;72459;50.110;8.750;2023-09-08T01:03:39;100757.63;;;18.35;52.46
82728;BME280;72459;50.110;8.750;2023-09-08T01:06:05;100757.56;;;18.31;55.37
82728;BME280;72459;50.110;8.750;2023-09-08T01:08:31;100756.72;;;18.33;53.24
82728;BME280;72459;50.110;8.750;2023-09-08T01:10:57;100759.34;;;18.30;52.52
82728;BME280;72459;50.110;8.750;2023-09-08T01:13:22;100761.94;;;18.24;54.45
82728;BME280;72459;50.110;8.750;2023-09-08T01:15:49;100759.19;;;18.20;59.55
82728;BME280;72459;50.110;8.750;2023-09-08T01:18:14;100760.91;;;18.15;52.98
82728;BME280;72459;50.110;8.750;2023-09-08T01:26:15;100764.25;;;17.98;53.66
82728;BME280;72459;50.110;8.750;2023-09-08T01:28:43;100761.56;;;17.95;53.78
82728;BME280;72459;50.110;8.750;2023-09-08T01:31:10;100770.38;;;17.91;52.66
82728;BME280;72459;50.110;8.750;2023-09-08T01:33:35;100774.78;;;17.91;52.79
82728;BME280;72459;50.110;8.750;2023-09-08T01:36:01;100768.56;;;17.89;52.18
82728;BME280;72459;50.110;8.750;2023-09-08T01:38:26;100766.75;;;17.86;52.52
82728;BME280;72459;50.110;8.750;2023-09-08T01:40:52;100766.72;;;17.85;53.51
82728;BME280;72459;50.110;8.750;2023-09-08T01:43:17;100769.41;;;17.86;53.65
82728;BME280;72459;50.110;8.750;2023-09-08T01:45:42;100767.63;;;17.85;53.81
82728;BME280;72459;50.110;8.750;2023-09-08T01:48:08;100763.03;;;17.73;62.02
82728;BME280;72459;50.110;8.750;2023-09-08T01:50:33;100755.94;;;17.74;55.21
82728;BME280;72459;50.110;8.750;2023-09-08T01:52:59;100756.88;;;17.76;52.71
82728;BME280;72459;50.110;8.750;2023-09-08T01:55:24;100758.59;;;17.72;57.04
82728;BME280;72459;50.110;8.750;2023-09-08T01:57:49;100744.28;;;17.64;55.66
82728;BME280;72459;50.110;8.750;2023-09-08T02:00:15;100752.38;;;17.70;54.19
82728;BME280;72459;50.110;8.750;2023-09-08T02:02:40;100748.81;;;17.71;54.45
82728;BME280;72459;50.110;8.750;2023-09-08T02:05:06;100751.47;;;17.70;53.46
82728;BME280;72459;50.110;8.750;2023-09-08T02:07:31;100752.34;;;17.69;54.25
82728;BME280;72459;50.110;8.750;2023-09-08T02:09:58;100748.66;;;17.62;53.93
82728;BME280;72459;50.110;8.750;2023-09-08T02:12:24;100752.19;;;17.60;53.33
82728;BME280;72459;50.110;8.750;2023-09-08T02:14:49;100746.84;;;17.58;53.58
82728;BME280;72459;50.110;8.750;2023-09-08T02:17:15;100750.34;;;17.56;54.00
82728;BME280;72459;50.110;8.750;2023-09-08T02:19:40;100754.72;;;17.54;54.44
82728;BME280;72459;50.110;8.750;2023-09-08T02:22:05;100755.59;;;17.53;55.71
82728;BME280;72459;50.110;8.750;2023-09-08T02:24:31;100751.16;;;17.52;53.46
82728;BME280;72459;50.110;8.750;2023-09-08T02:26:56;100753.78;;;17.50;53.35
82728;BME280;72459;50.110;8.750;2023-09-08T02:29:22;100755.53;;;17.50;53.50
82728;BME280;72459;50.110;8.750;2023-09-08T02:31:48;100754.59;;;17.44;54.20
82728;BME280;72459;50.110;8.750;2023-09-08T02:34:13;100760.78;;;17.43;53.75
82728;BME280;72459;50.110;8.750;2023-09-08T02:36:39;100754.53;;;17.40;54.04
82728;BME280;72459;50.110;8.750;2023-09-08T02:39:04;100753.56;;;17.36;59.35
82728;BME280;72459;50.110;8.750;2023-09-08T02:41:30;100751.84;;;17.38;54.47
82728;BME280;72459;50.110;8.750;2023-09-08T02:43:55;100756.22;;;17.36;54.14
82728;BME280;72459;50.110;8.750;2023-09-08T02:46:20;100762.44;;;17.37;55.49
82728;BME280;72459;50.110;8.750;2023-09-08T02:48:45;100758.84;;;17.33;53.46
82728;BME280;72459;50.110;8.750;2023-09-08T02:51:11;100755.25;;;17.30;53.91
82728;BME280;72459;50.110;8.750;2023-09-08T02:53:37;100756.16;;;17.30;53.79
82728;BME280;72459;50.110;8.750;2023-09-08T02:56:03;100758.72;;;17.26;54.30
82728;BME280;72459;50.110;8.750;2023-09-08T02:58:30;100761.38;;;17.26;56.14
82728;BME280;72459;50.110;8.750;2023-09-08T03:01:09;100761.41;;;17.27;54.65
82728;BME280;72459;50.110;8.750;2023-09-08T03:03:35;100758.72;;;17.24;55.63
82728;BME280;72459;50.110;8.750;2023-09-08T03:06:00;100756.81;;;17.17;57.35
82728;BME280;72459;50.110;8.750;2023-09-08T03:08:28;100754.16;;;17.17;54.94
82728;BME280;72459;50.110;8.750;2023-09-08T03:10:58;100755.00;;;17.15;56.54
82728;BME280;72459;50.110;8.750;2023-09-08T03:13:23;100756.78;;;17.14;54.54
82728;BME280;72459;50.110;8.750;2023-09-08T03:15:51;100753.25;;;17.15;58.56
82728;BME280;72459;50.110;8.750;2023-09-08T03:18:16;100762.09;;;17.16;56.38
82728;BME280;72459;50.110;8.750;2023-09-08T03:20:41;100761.13;;;17.09;56.49
82728;BME280;72459;50.110;8.750;2023-09-08T03:23:07;100757.53;;;17.05;56.55
82728;BME280;72459;50.110;8.750;2023-09-08T03:25:32;100760.09;;;17.01;56.55
82728;BME280;72459;50.110;8.750;2023-09-08T03:27:57;100767.09;;;16.96;58.31
82728;BME280;72459;50.110;8.750;2023-09-08T03:30:23;100767.06;;;16.94;60.96
82728;BME280;72459;50.110;8.750;2023-09-08T03:32:48;100757.28;;;16.92;57.36
82728;BME280;72459;50.110;8.750;2023-09-08T03:35:13;100753.78;;;16.93;56.03
82728;BME280;72459;50.110;8.750;2023-09-08T03:37:38;100760.81;;;16.91;58.88
82728;BME280;72459;50.110;8.750;2023-09-08T03:40:04;100754.56;;;16.89;57.17
82728;BME280;72459;50.110;8.750;2023-09-08T03:42:31;100755.41;;;16.88;56.50
82728;BME280;72459;50.110;8.750;2023-09-08T03:44:56;100755.38;;;16.85;54.88
82728;BME280;72459;50.110;8.750;2023-09-08T03:47:22;100754.50;;;16.86;56.01
82728;BME280;72459;50.110;8.750;2023-09-08T03:49:47;100754.44;;;16.83;55.61
82728;BME280;72459;50.110;8.750;2023-09-08T03:52:12;100757.00;;;16.76;56.91
82728;BME280;72459;50.110;8.750;2023-09-08T03:54:38;100761.41;;;16.76;60.22
82728;BME280;72459;50.110;8.750;2023-09-08T03:57:03;100758.81;;;16.79;57.42
82728;BME280;72459;50.110;8.750;2023-09-08T03:59:29;100768.50;;;16.77;59.45
82728;BME280;72459;50.110;8.750;2023-09-08T04:01:54;100767.56;;;16.73;57.75
82728;BME280;72459;50.110;8.750;2023-09-08T04:04:20;100766.66;;;16.73;56.85
82728;BME280;72459;50.110;8.750;2023-09-08T04:06:45;100768.44;;;16.74;56.83
82728;BME280;72459;50.110;8.750;2023-09-08T04:09:10;100768.44;;;16.74;56.03
82728;BME280;72459;50.110;8.750;2023-09-08T04:11:36;100771.06;;;16.72;57.73
82728;BME280;72459;50.110;8.750;2023-09-08T04:14:01;100773.69;;;16.69;56.49
82728;BME280;72459;50.110;8.750;2023-09-08T04:16:26;100768.31;;;16.66;57.24
82728;BME280;72459;50.110;8.750;2023-09-08T04:18:52;100770.00;;;16.64;56.72
82728;BME280;72459;50.110;8.750;2023-09-08T04:21:17;100780.63;;;16.64;55.96
82728;BME280;72459;50.110;8.750;2023-09-08T04:23:42;100779.72;;;16.62;56.52
82728;BME280;72459;50.110;8.750;2023-09-08T04:26:08;100777.97;;;16.64;57.21
82728;BME280;72459;50.110;8.750;2023-09-08T04:28:33;100781.50;;;16.63;61.24
82728;BME280;72459;50.110;8.750;2023-09-08T04:30:58;100785.94;;;16.64;58.63
82728;BME280;72459;50.110;8.750;2023-09-08T04:33:24;100785.00;;;16.62;56.70
82728;BME280;72459;50.110;8.750;2023-09-08T04:35:49;100782.34;;;16.61;56.41
82728;BME280;72459;50.110;8.750;2023-09-08T04:38:14;100784.97;;;16.59;57.45
82728;BME280;72459;50.110;8.750;2023-09-08T04:40:40;100788.47;;;16.58;58.47
82728;BME280;72459;50.110;8.750;2023-09-08T04:43:07;100779.59;;;16.56;56.76
82728;BME280;72459;50.110;8.750;2023-09-08T04:45:32;100790.22;;;16.56;57.37
82728;BME280;72459;50.110;8.750;2023-09-08T04:47:57;100792.88;;;16.56;56.55
82728;BME280;72459;50.110;8.750;2023-09-08T04:50:23;100792.00;;;16.57;56.01
82728;BME280;72459;50.110;8.750;2023-09-08T04:52:48;100791.06;;;16.55;57.39
82728;BME280;72459;50.110;8.750;2023-09-08T04:55:13;100802.59;;;16.56;56.78
82728;BME280;72459;50.110;8.750;2023-09-08T04:57:39;100805.22;;;16.54;57.57
82728;BME280;72459;50.110;8.750;2023-09-08T05:00:05;100799.91;;;16.54;60.24
82728;BME280;72459;50.110;8.750;2023-09-08T05:02:31;100815.00;;;16.58;57.79
82728;BME280;72459;50.110;8.750;2023-09-08T05:04:57;100807.91;;;16.57;57.57
82728;BME280;72459;50.110;8.750;2023-09-08T05:07:22;100811.44;;;16.56;57.61
82728;BME280;72459;50.110;8.750;2023-09-08T05:09:47;100814.16;;;16.59;58.44
82728;BME280;72459;50.110;8.750;2023-09-08T05:12:13;100810.59;;;16.59;58.57
82728;BME280;72459;50.110;8.750;2023-09-08T05:14:38;100820.38;;;16.61;57.12
82728;BME280;72459;50.110;8.750;2023-09-08T05:17:04;100815.06;;;16.61;57.69
82728;BME280;72459;50.110;8.750;2023-09-08T05:19:30;100826.63;;;16.65;58.97
82728;BME280;72459;50.110;8.750;2023-09-08T05:21:55;100816.94;;;16.65;59.31
82728;BME280;72459;50.110;8.750;2023-09-08T05:24:21;100813.50;;;16.69;57.19
82728;BME280;72459;50.110;8.750;2023-09-08T05:26:47;100812.63;;;16.70;56.56
82728;BME280;72459;50.110;8.750;2023-09-08T05:29:12;100810.03;;;16.73;57.48
82728;BME280;72459;50.110;8.750;2023-09-08T05:31:38;100810.97;;;16.77;57.30
82728;BME280;72459;50.110;8.750;2023-09-08T05:34:04;100813.66;;;16.78;57.55
82728;BME280;72459;50.110;8.750;2023-09-08T05:36:29;100806.69;;;16.84;57.19
82728;BME280;72459;50.110;8.750;2023-09-08T05:38:56;100816.47;;;16.88;57.19
82728;BME280;72459;50.110;8.750;2023-09-08T05:41:21;100815.69;;;16.92;57.34
82728;BME280;72459;50.110;8.750;2023-09-08T05:43:47;100814.91;;;16.96;57.00
82728;BME280;72459;50.110;8.750;2023-09-08T05:46:14;100817.63;;;17.00;58.28
82728;BME280;72459;50.110;8.750;2023-09-08T05:48:39;100818.56;;;17.04;57.51
82728;BME280;72459;50.110;8.750;2023-09-08T05:51:06;100821.28;;;17.07;57.31
82728;BME280;72459;50.110;8.750;2023-09-08T05:53:32;100824.03;;;17.13;57.73
82728;BME280;72459;50.110;8.750;2023-09-08T05:55:58;100829.41;;;17.16;57.27
82728;BME280;72459;50.110;8.750;2023-09-08T05:58:23;100823.22;;;17.17;58.59
82728;BME280;72459;50.110;8.750;2023-09-08T06:00:52;100826.00;;;17.23;57.47
82728;BME280;72459;50.110;8.750;2023-09-08T06:03:18;100826.91;;;17.25;58.36
82728;BME280;72459;50.110;8.750;2023-09-08T06:05:43;100831.41;;;17.29;58.81
82728;BME280;72459;50.110;8.750;2023-09-08T06:08:09;100835.03;;;17.34;56.27
82728;BME280;72459;50.110;8.750;2023-09-08T06:10:35;100831.56;;;17.38;56.65
82728;BME280;72459;50.110;8.750;2023-09-08T06:13:00;100821.03;;;17.46;56.53
82728;BME280;72459;50.110;8.750;2023-09-08T06:15:26;100823.81;;;17.54;57.13
82728;BME280;72459;50.110;8.750;2023-09-08T06:17:52;100823.94;;;17.60;57.01
82728;BME280;72459;50.110;8.750;2023-09-08T06:20:17;100828.53;;;17.67;57.01
82728;BME280;72459;50.110;8.750;2023-09-08T06:22:43;100828.69;;;17.78;57.71
82728;BME280;72459;50.110;8.750;2023-09-08T06:25:08;100819.09;;;17.89;56.29
82728;BME280;72459;50.110;8.750;2023-09-08T06:27:34;100820.97;;;17.97;57.71
82728;BME280;72459;50.110;8.750;2023-09-08T06:29:59;100819.50;;;18.19;57.28
82728;BME280;72459;50.110;8.750;2023-09-08T06:32:25;100816.31;;;18.46;57.11
82728;BME280;72459;50.110;8.750;2023-09-08T06:34:50;100822.78;;;18.68;56.74
82728;BME280;72459;50.110;8.750;2023-09-08T06:37:15;100820.28;;;18.82;56.14
82728;BME280;72459;50.110;8.750;2023-09-08T06:39:41;100823.03;;;18.89;55.47
82728;BME280;72459;50.110;8.750;2023-09-08T06:42:06;100824.81;;;18.89;56.38
82728;BME280;72459;50.110;8.750;2023-09-08T06:44:31;100823.06;;;18.91;56.32
82728;BME280;72459;50.110;8.750;2023-09-08T06:46:57;100821.34;;;18.97;55.94
82728;BME280;72459;50.110;8.750;2023-09-08T06:49:23;100831.13;;;18.97;57.25
82728;BME280;72459;50.110;8.750;2023-09-08T06:51:48;100826.81;;;19.11;56.49
82728;BME280;72459;50.110;8.750;2023-09-08T06:54:14;100832.22;;;19.22;55.82
82728;BME280;72459;50.110;8.750;2023-09-08T06:56:39;100825.22;;;19.35;56.14
82728;BME280;72459;50.110;8.750;2023-09-08T06:59:05;100824.50;;;19.51;55.52
82728;BME280;72459;50.110;8.750;2023-09-08T07:01:30;100828.53;;;20.18;56.46
82728;BME280;72459;50.110;8.750;2023-09-08T07:03:56;100820.84;;;21.34;53.54
82728;BME280;72459;50.110;8.750;2023-09-08T07:06:21;100816.16;;;22.57;51.90
82728;BME280;72459;50.110;8.750;2023-09-08T07:08:48;100821.66;;;23.68;49.11
82728;BME280;72459;50.110;8.750;2023-09-08T07:11:15;100821.03;;;25.54;47.31
82728;BME280;72459;50.110;8.750;2023-09-08T07:13:41;100822.19;;;27.55;43.60
82728;BME280;72459;50.110;8.750;2023-09-08T07:16:06;100820.50;;;29.09;43.37
82728;BME280;72459;50.110;8.750;2023-09-08T07:18:31;100813.03;;;29.17;37.57
82728;BME280;72459;50.110;8.750;2023-09-08T07:21:01;100818.94;;;31.48;40.33
82728;BME280;72459;50.110;8.750;2023-09-08T07:23:26;100825.72;;;31.80;34.73
82728;BME280;72459;50.110;8.750;2023-09-08T07:25:53;100826.81;;;32.37;37.21
82728;BME280;72459;50.110;8.750;2023-09-08T07:28:18;100821.34;;;34.20;35.74
82728;BME280;72459;50.110;8.750;2023-09-08T07:30:44;100826.13;;;34.99;34.79
82728;BME280;72459;50.110;8.750;2023-09-08T07:33:13;100826.22;;;35.74;32.96
82728;BME280;72459;50.110;8.750;2023-09-08T07:35:45;100827.44;;;36.44;33.44
82728;BME280;72459;50.110;8.750;2023-09-08T07:38:10;100821.78;;;35.57;32.53
82728;BME280;72459;50.110;8.750;2023-09-08T07:40:36;100827.75;;;35.64;33.79
82728;BME280;72459;50.110;8.750;2023-09-08T07:43:01;100811.53;;;34.51;28.16
82728;BME280;72459;50.110;8.750;2023-09-08T07:45:28;100815.88;;;35.81;35.14
82728;BME280;72459;50.110;8.750;2023-09-08T07:47:54;100814.19;;;38.01;31.26
82728;BME280;72459;50.110;8.750;2023-09-08T07:50:24;100810.16;;;38.20;26.68
82728;BME280;72459;50.110;8.750;2023-09-08T07:52:51;100815.16;;;39.02;24.59
82728;BME280;72459;50.110;8.750;2023-09-08T07:55:17;100813.44;;;39.25;22.53
82728;BME280;72459;50.110;8.750;2023-09-08T07:57:43;100824.50;;;39.84;27.54
82728;BME280;72459;50.110;8.750;2023-09-08T08:00:09;100810.91;;;40.62;26.05
82728;BME280;72459;50.110;8.750;2023-09-08T08:02:37;100811.34;;;39.28;27.05
82728;BME280;72459;50.110;8.750;2023-09-08T08:05:02;100815.63;;;39.91;26.50
82728;BME280;72459;50.110;8.750;2023-09-08T08:07:28;100818.94;;;38.76;25.73
82728;BME280;72459;50.110;8.750;2023-09-08T08:09:55;100823.53;;;37.18;28.50
82728;BME280;72459;50.110;8.750;2023-09-08T08:12:20;100815.03;;;35.17;32.74
82728;BME280;72459;50.110;8.750;2023-09-08T08:14:47;100828.81;;;36.21;30.53
82728;BME280;72459;50.110;8.750;2023-09-08T08:17:13;100827.72;;;36.68;28.90
82728;BME280;72459;50.110;8.750;2023-09-08T08:19:39;100829.22;;;37.96;27.77
82728;BME280;72459;50.110;8.750;2023-09-08T08:22:04;100819.66;;;37.89;27.98
82728;BME280;72459;50.110;8.750;2023-09-08T08:24:29;100822.88;;;35.08;27.59
82728;BME280;72459;50.110;8.750;2023-09-08T08:26:55;100826.09;;;34.34;30.45
82728;BME280;72459;50.110;8.750;2023-09-08T08:29:20;100830.06;;;32.65;31.88
82728;BME280;72459;50.110;8.750;2023-09-08T08:31:46;100830.59;;;30.61;34.77
82728;BME280;72459;50.110;8.750;2023-09-08T08:34:11;100828.00;;;29.57;35.64
82728;BME280;72459;50.110;8.750;2023-09-08T08:36:36;100820.88;;;29.25;35.40
82728;BME280;72459;50.110;8.750;2023-09-08T08:39:02;100832.13;;;28.54;35.75
82728;BME280;72459;50.110;8.750;2023-09-08T08:41:29;100826.78;;;27.87;36.99
82728;BME280;72459;50.110;8.750;2023-09-08T08:43:55;100819.53;;;27.54;37.74
82728;BME280;72459;50.110;8.750;2023-09-08T08:46:21;100826.38;;;26.93;38.39
82728;BME280;72459;50.110;8.750;2023-09-08T08:48:48;100813.50;;;26.67;41.02
82728;BME280;72459;50.110;8.750;2023-09-08T08:51:16;100814.75;;;28.92;37.65
82728;BME280;72459;50.110;8.750;2023-09-08T08:53:43;100811.75;;;31.89;32.13
82728;BME280;72459;50.110;8.750;2023-09-08T08:56:09;100808.09;;;33.78;29.87
82728;BME280;72459;50.110;8.750;2023-09-08T08:58:37;100800.84;;;36.16;28.32
82728;BME280;72459;50.110;8.750;2023-09-08T09:01:05;100799.13;;;37.55;27.56
82728;BME280;72459;50.110;8.750;2023-09-08T09:03:32;100810.78;;;38.11;26.26
82728;BME280;72459;50.110;8.750;2023-09-08T09:06:00;100811.88;;;38.84;22.79
82728;BME280;72459;50.110;8.750;2023-09-08T09:08:26;100810.34;;;39.77;23.58
82728;BME280;72459;50.110;8.750;2023-09-08T09:10:52;100809.72;;;40.31;22.56
82728;BME280;72459;50.110;8.750;2023-09-08T09:13:17;100801.69;;;40.17;21.18
82728;BME280;72459;50.110;8.750;2023-09-08T09:15:43;100807.19;;;40.17;20.10
82728;BME280;72459;50.110;8.750;2023-09-08T09:18:10;100804.38;;;40.52;22.32
82728;BME280;72459;50.110;8.750;2023-09-08T09:20:36;100805.03;;;41.43;19.67
82728;BME280;72459;50.110;8.750;2023-09-08T09:23:01;100809.09;;;41.28;21.41
82728;BME280;72459;50.110;8.750;2023-09-08T09:25:28;100801.88;;;41.48;20.67
82728;BME280;72459;50.110;8.750;2023-09-08T09:27:59;100811.88;;;41.17;18.27
82728;BME280;72459;50.110;8.750;2023-09-08T09:30:26;100797.28;;;42.53;18.44
82728;BME280;72459;50.110;8.750;2023-09-08T09:33:04;100812.75;;;43.84;21.48
82728;BME280;72459;50.110;8.750;2023-09-08T09:35:47;100800.00;;;45.85;20.08
82728;BME280;72459;50.110;8.750;2023-09-08T09:38:16;100804.13;;;45.98;17.60
82728;BME280;72459;50.110;8.750;2023-09-08T09:40:48;100805.78;;;46.61;16.29
82728;BME280;72459;50.110;8.750;2023-09-08T09:43:20;100811.94;;;46.72;17.52
82728;BME280;72459;50.110;8.750;2023-09-08T09:45:46;100795.16;;;45.87;15.56
82728;BME280;72459;50.110;8.750;2023-09-08T09:48:12;100794.56;;;46.19;18.78
82728;BME280;72459;50.110;8.750;2023-09-08T09:50:41;100805.22;;;47.33;17.22
82728;BME280;72459;50.110;8.750;2023-09-08T09:53:14;100799.28;;;47.28;16.35
82728;BME280;72459;50.110;8.750;2023-09-08T09:55:43;100799.00;;;47.72;14.49
82728;BME280;72459;50.110;8.750;2023-09-08T09:58:10;100797.25;;;46.62;14.94
82728;BME280;72459;50.110;8.750;2023-09-08T10:00:39;100793.09;;;47.51;18.00
82728;BME280;72459;50.110;8.750;2023-09-08T10:03:07;100799.63;;;47.33;19.26
82728;BME280;72459;50.110;8.750;2023-09-08T10:05:33;100801.00;;;46.45;13.73
82728;BME280;72459;50.110;8.750;2023-09-08T10:07:58;100787.94;;;45.76;15.48
82728;BME280;72459;50.110;8.750;2023-09-08T10:10:26;100799.22;;;46.36;18.95
82728;BME280;72459;50.110;8.750;2023-09-08T10:12:57;100791.16;;;46.93;15.62
82728;BME280;72459;50.110;8.750;2023-09-08T10:15:26;100802.13;;;48.34;17.48
82728;BME280;72459;50.110;8.750;2023-09-08T10:17:56;100794.56;;;47.29;17.66
82728;BME280;72459;50.110;8.750;2023-09-08T10:20:25;100800.59;;;48.15;13.08
82728;BME280;72459;50.110;8.750;2023-09-08T10:23:23;100788.47;;;47.25;14.84
82728;BME280;72459;50.110;8.750;2023-09-08T10:25:56;100784.72;;;48.32;17.67
82728;BME280;72459;50.110;8.750;2023-09-08T10:28:23;100783.28;;;48.44;16.90
82728;BME280;72459;50.110;8.750;2023-09-08T10:30:50;100781.59;;;48.74;16.50
82728;BME280;72459;50.110;8.750;2023-09-08T10:33:17;100776.00;;;47.78;15.89
82728;BME280;72459;50.110;8.750;2023-09-08T10:35:43;100783.19;;;46.98;17.00
82728;BME280;72459;50.110;8.750;2023-09-08T10:38:23;100774.28;;;48.73;16.04
82728;BME280;72459;50.110;8.750;2023-09-08T10:40:52;100776.00;;;47.78;12.75
82728;BME280;72459;50.110;8.750;2023-09-08T10:43:17;100772.84;;;49.16;14.90
82728;BME280;72459;50.110;8.750;2023-09-08T10:45:45;100774.69;;;49.55;15.08
82728;BME280;72459;50.110;8.750;2023-09-08T10:48:11;100776.41;;;48.63;16.31
82728;BME280;72459;50.110;8.750;2023-09-08T10:50:40;100770.72;;;47.34;17.28
82728;BME280;72459;50.110;8.750;2023-09-08T10:53:16;100770.44;;;47.70;14.13
82728;BME280;72459;50.110;8.750;2023-09-08T10:55:49;100769.41;;;47.95;13.81
82728;BME280;72459;50.110;8.750;2023-09-08T10:58:28;100763.47;;;47.90;17.23
82728;BME280;72459;50.110;8.750;2023-09-08T11:00:59;100760.16;;;50.64;15.05
82728;BME280;72459;50.110;8.750;2023-09-08T11:06:08;100762.47;;;50.17;16.02
82728;BME280;72459;50.110;8.750;2023-09-08T11:08:36;100765.97;;;49.96;14.87
82728;BME280;72459;50.110;8.750;2023-09-08T11:11:02;100758.69;;;49.49;12.58
82728;BME280;72459;50.110;8.750;2023-09-08T11:13:27;100754.56;;;49.82;13.14
82728;BME280;72459;50.110;8.750;2023-09-08T11:15:56;100755.41;;;48.83;15.16
82728;BME280;72459;50.110;8.750;2023-09-08T11:18:31;100754.34;;;48.93;15.40
82728;BME280;72459;50.110;8.750;2023-09-08T11:20:58;100751.56;;;48.37;13.62
82728;BME280;72459;50.110;8.750;2023-09-08T11:23:24;100750.44;;;48.63;14.31
82728;BME280;72459;50.110;8.750;2023-09-08T11:25:50;100750.28;;;49.26;15.99
82728;BME280;72459;50.110;8.750;2023-09-08T11:28:17;100743.25;;;50.13;13.82
82728;BME280;72459;50.110;8.750;2023-09-08T11:30:45;100740.97;;;50.32;14.62
82728;BME280;72459;50.110;8.750;2023-09-08T11:33:15;100742.88;;;51.48;14.01
82728;BME280;72459;50.110;8.750;2023-09-08T11:35:40;100737.09;;;50.77;15.18
82728;BME280;72459;50.110;8.750;2023-09-08T11:38:10;100739.91;;;51.34;13.39
82728;BME280;72459;50.110;8.750;2023-09-08T11:40:35;100724.75;;;49.90;14.78
82728;BME280;72459;50.110;8.750;2023-09-08T11:43:02;100734.16;;;51.21;13.61
82728;BME280;72459;50.110;8.750;2023-09-08T11:45:28;100721.72;;;49.39;13.59
82728;BME280;72459;50.110;8.750;2023-09-08T11:47:55;100721.56;;;49.09;12.95
82728;BME280;72459;50.110;8.750;2023-09-08T11:50:20;100726.19;;;50.08;13.67
82728;BME280;72459;50.110;8.750;2023-09-08T11:52:47;100721.75;;;49.08;15.70
82728;BME280;72459;50.110;8.750;2023-09-08T11:55:13;100726.66;;;50.27;13.57
82728;BME280;72459;50.110;8.750;2023-09-08T11:57:40;100721.75;;;49.76;14.95
82728;BME280;72459;50.110;8.750;2023-09-08T12:00:06;100724.56;;;49.08;13.52
82728;BME280;72459;50.110;8.750;2023-09-08T12:02:37;100717.59;;;50.39;13.58
82728;BME280;72459;50.110;8.750;2023-09-08T12:05:04;100712.91;;;49.88;14.68
82728;BME280;72459;50.110;8.750;2023-09-08T12:07:29;100719.59;;;50.01;12.63
82728;BME280;72459;50.110;8.750;2023-09-08T12:09:55;100712.78;;;50.48;11.92
82728;BME280;72459;50.110;8.750;2023-09-08T12:12:21;100710.97;;;49.88;15.16
82728;BME280;72459;50.110;8.750;2023-09-08T12:14:46;100712.47;;;49.99;14.37
82728;BME280;72459;50.110;8.750;2023-09-08T12:17:12;100700.22;;;50.73;14.72
82728;BME280;72459;50.110;8.750;2023-09-08T12:19:42;100706.59;;;51.25;13.34
82728;BME280;72459;50.110;8.750;2023-09-08T12:22:07;100695.50;;;50.44;13.83
82728;BME280;72459;50.110;8.750;2023-09-08T12:27:22;100696.59;;;48.77;14.61
82728;BME280;72459;50.110;8.750;2023-09-08T12:30:01;100702.28;;;48.05;13.35
82728;BME280;72459;50.110;8.750;2023-09-08T12:32:29;100693.59;;;48.86;13.55
82728;BME280;72459;50.110;8.750;2023-09-08T12:34:56;100701.03;;;49.71;13.68
82728;BME280;72459;50.110;8.750;2023-09-08T12:37:22;100699.13;;;48.64;13.76
82728;BME280;72459;50.110;8.750;2023-09-08T12:39:48;100699.09;;;48.72;15.04
82728;BME280;72459;50.110;8.750;2023-09-08T12:42:14;100693.91;;;48.61;14.86
82728;BME280;72459;50.110;8.750;2023-09-08T12:44:40;100695.38;;;49.56;14.55
82728;BME280;72459;50.110;8.750;2023-09-08T12:47:06;100691.38;;;46.72;11.82
82728;BME280;72459;50.110;8.750;2023-09-08T12:49:32;100681.97;;;47.64;15.70
82728;BME280;72459;50.110;8.750;2023-09-08T12:51:57;100677.06;;;47.90;14.58
82728;BME280;72459;50.110;8.750;2023-09-08T12:54:22;100691.69;;;47.44;13.63
82728;BME280;72459;50.110;8.750;2023-09-08T12:56:48;100684.06;;;46.29;14.76